Plymouth Kingdom, Vermont
Current Conditions -  °F | °C
As of 7:35 PM on Saturday 20 Dec 2014 (Local Time) from KRUT Reporting Station
Overcast Overcast  
Wind Chill: 15°   Ceiling: 9500
Heat Index: 21°   Visibility: 10mi
Dew Point: 18°   Wind: 5mph
Humidity: 86%   Direction: 130°SE
Pressure: 30.28"   Gusts: NA
Location:  43.5113°N, 72.7233°W
Report Text: KRUT 210035Z 13004KT 10SM OVC095 M06/M08 A3028 RMK AO1
Loading
Personal Weather Stations






























Interactive Weather Map New forecast layout! Learn more

10-Day Weather Forecast

Advertisements
Track Severe Weather on mobile